Time;durP1;ratioP1;P1;durP2;ratioP2;P2;SDS_P1;SDS_P2;PMS_P1;PMS_P2;Temp;Humidity;BMP_temperature;BMP_pressure;BME280_temperature;BME280_humidity;BME280_pressure;Samples;Min_cycle;Max_cycle;Signal;HPM_P1;HPM_P2
2022/03/20 00:02:56;;;;;;;23.52;12.20;;;5.90;79.70;;;;;;6251327;28;20054;-81
2022/03/20 00:05:59;;;;;;;26.85;14.55;;;5.80;79.50;;;;;;6250001;28;20128;-79
2022/03/20 00:09:02;;;;;;;30.15;16.52;;;5.80;79.30;;;;;;6250956;28;20156;-79
2022/03/20 00:12:04;;;;;;;28.88;15.65;;;5.80;79.00;;;;;;6250158;28;20065;-78
2022/03/20 00:15:07;;;;;;;30.40;16.10;;;5.80;78.40;;;;;;6251311;28;20487;-79
2022/03/20 00:18:09;;;;;;;34.78;13.70;;;5.80;78.20;;;;;;6252064;28;20056;-79
2022/03/20 00:21:11;;;;;;;25.75;13.63;;;5.90;78.10;;;;;;6251167;28;20129;-79
2022/03/20 00:24:15;;;;;;;21.25;13.88;;;5.90;77.80;;;;;;6251607;28;20101;-79
2022/03/20 00:27:18;;;;;;;27.20;15.35;;;5.80;77.60;;;;;;6251109;28;20394;-80
2022/03/20 00:30:20;;;;;;;28.00;14.23;;;5.80;77.40;;;;;;6250192;28;20656;-81
2022/03/20 00:33:21;;;;;;;28.95;13.18;;;5.80;77.60;;;;;;6251067;28;20052;-81
2022/03/20 00:36:23;;;;;;;26.48;14.07;;;5.70;77.60;;;;;;6249649;28;20443;-78
2022/03/20 00:39:26;;;;;;;23.48;11.52;;;5.70;77.60;;;;;;6252057;28;20068;-81
2022/03/20 00:42:28;;;;;;;32.28;13.70;;;5.70;78.00;;;;;;6251217;28;20052;-78
2022/03/20 00:45:30;;;;;;;27.15;13.40;;;5.50;78.10;;;;;;6250887;28;20053;-80
2022/03/20 00:48:32;;;;;;;24.60;13.68;;;5.50;78.50;;;;;;6250071;28;20045;-80
2022/03/20 00:51:34;;;;;;;23.60;11.38;;;5.40;78.70;;;;;;6249375;28;20049;-80
2022/03/20 00:54:38;;;;;;;29.75;14.95;;;5.40;78.50;;;;;;6249517;28;20132;-81
2022/03/20 00:57:39;;;;;;;27.08;13.63;;;5.30;78.40;;;;;;6249794;28;20045;-81
2022/03/20 01:00:42;;;;;;;25.65;14.38;;;5.30;78.50;;;;;;6231565;28;20042;-80
2022/03/20 01:03:44;;;;;;;28.67;14.20;;;5.30;78.50;;;;;;6225981;28;20045;-81
2022/03/20 01:06:46;;;;;;;23.73;14.57;;;5.20;78.50;;;;;;6223299;28;20189;-80
2022/03/20 01:09:49;;;;;;;28.10;13.82;;;5.20;78.60;;;;;;6246096;28;20042;-81
2022/03/20 01:12:51;;;;;;;27.55;14.82;;;5.20;78.40;;;;;;6250568;28;20088;-81
2022/03/20 01:15:53;;;;;;;26.30;14.73;;;5.10;78.70;;;;;;6253034;28;20045;-81
2022/03/20 01:18:55;;;;;;;26.00;13.98;;;5.00;78.70;;;;;;6255170;28;20185;-81
2022/03/20 01:21:57;;;;;;;28.25;13.52;;;5.10;78.80;;;;;;6254128;28;20091;-79
2022/03/20 01:25:00;;;;;;;31.02;15.85;;;5.10;78.90;;;;;;6254398;28;20053;-78
2022/03/20 01:28:02;;;;;;;28.63;14.23;;;5.10;78.70;;;;;;6255689;28;20044;-80
2022/03/20 01:31:04;;;;;;;26.23;14.82;;;5.10;78.70;;;;;;6257571;28;20046;-81
2022/03/20 01:34:06;;;;;;;25.00;14.70;;;5.10;78.70;;;;;;6256378;28;20123;-79
2022/03/20 01:37:08;;;;;;;31.55;14.27;;;5.10;78.60;;;;;;6255239;28;20053;-81
2022/03/20 01:40:12;;;;;;;28.38;14.88;;;5.10;78.10;;;;;;6254696;28;20037;-80
2022/03/20 01:43:14;;;;;;;21.02;11.45;;;5.10;77.80;;;;;;6255671;28;20045;-80
2022/03/20 01:46:15;;;;;;;25.85;12.02;;;5.00;77.30;;;;;;6254165;28;20111;-80
2022/03/20 01:49:17;;;;;;;25.95;14.07;;;5.10;77.20;;;;;;6255060;28;20049;-80
2022/03/20 01:52:25;;;;;;;32.15;14.65;;;5.10;77.10;;;;;;6254963;28;20046;-79
2022/03/20 01:55:29;;;;;;;;;;;5.10;77.00;;;;;;6255786;28;20103;-80
2022/03/20 01:58:32;;;;;;;28.63;14.95;;;5.10;76.50;;;;;;6254664;28;19921;-81
2022/03/20 02:01:33;;;;;;;25.45;12.55;;;5.20;75.70;;;;;;6255963;28;20049;-80
2022/03/20 02:04:36;;;;;;;23.90;11.45;;;5.20;75.00;;;;;;6256593;28;20046;-80
2022/03/20 02:07:38;;;;;;;25.80;13.02;;;5.30;74.50;;;;;;6253354;28;20053;-81
2022/03/20 02:10:43;;;;;;;18.95;9.73;;;5.30;74.00;;;;;;6254232;28;20055;-81
2022/03/20 02:13:45;;;;;;;24.20;13.68;;;5.30;73.90;;;;;;6253435;28;20053;-80
2022/03/20 02:16:47;;;;;;;23.95;11.85;;;5.30;74.00;;;;;;6253576;28;20041;-81
2022/03/20 02:19:49;;;;;;;21.60;11.60;;;5.40;73.80;;;;;;6253403;28;20076;-81
2022/03/20 02:22:52;;;;;;;23.50;12.25;;;5.50;72.50;;;;;;6254048;28;20051;-81
2022/03/20 02:25:56;;;;;;;22.95;11.25;;;5.70;71.70;;;;;;6251863;28;20045;-81
2022/03/20 02:28:58;;;;;;;25.73;12.40;;;5.90;70.90;;;;;;6252619;28;20099;-78
2022/03/20 02:32:00;;;;;;;20.73;10.90;;;5.90;70.30;;;;;;6252849;28;20048;-80
2022/03/20 02:35:04;;;;;;;22.63;11.18;;;5.90;70.40;;;;;;6254842;28;20431;-80
2022/03/20 02:38:10;;;;;;;19.27;12.85;;;5.90;70.00;;;;;;6256048;28;20057;-79
2022/03/20 02:41:15;;;;;;;22.25;12.02;;;5.90;70.20;;;;;;6252903;28;20041;-78
2022/03/20 02:44:17;;;;;;;23.27;11.15;;;6.00;70.70;;;;;;6252766;28;20074;-80
2022/03/20 02:47:20;;;;;;;22.60;11.90;;;6.10;70.10;;;;;;6252091;28;20688;-80
2022/03/20 02:50:24;;;;;;;23.90;11.82;;;6.10;69.50;;;;;;6250276;28;20037;-80
2022/03/20 02:53:27;;;;;;;23.20;12.02;;;6.20;68.80;;;;;;6248960;28;20057;-78
2022/03/20 02:56:29;;;;;;;22.05;9.85;;;6.20;68.40;;;;;;6247526;28;20431;-77
2022/03/20 02:59:31;;;;;;;20.98;11.13;;;6.20;67.90;;;;;;6247902;28;20050;-79
2022/03/20 03:02:36;;;;;;;22.63;12.02;;;6.20;67.70;;;;;;6247718;28;20046;-79
2022/03/20 03:05:39;;;;;;;21.80;11.07;;;6.20;68.00;;;;;;6247061;28;20172;-79
2022/03/20 03:12:04;;;;;;;16.77;8.35;;;6.30;67.30;;;;;;6252257;28;20045;-80
2022/03/20 03:15:19;;;;;;;19.55;11.77;;;6.30;66.90;;;;;;6251663;28;20132;-78
2022/03/20 03:18:22;;;;;;;22.55;11.65;;;6.30;66.70;;;;;;6249739;28;20046;-78
2022/03/20 03:21:23;;;;;;;22.60;11.77;;;6.40;66.70;;;;;;6250034;28;20569;-80
2022/03/20 03:24:27;;;;;;;18.63;10.60;;;6.40;66.50;;;;;;6249001;28;20037;-79
2022/03/20 03:27:29;;;;;;;21.45;11.73;;;6.50;66.30;;;;;;6250653;28;20059;-79
2022/03/20 03:30:30;;;;;;;24.63;11.30;;;6.50;66.20;;;;;;6253082;28;20033;-79
2022/03/20 03:33:33;;;;;;;19.67;10.05;;;6.50;66.10;;;;;;6251556;28;20056;-77
2022/03/20 03:36:33;;;;;;;22.40;8.70;;;6.40;66.20;;;;;;6251385;28;20037;-78
2022/03/20 03:39:36;;;;;;;26.70;11.85;;;6.40;66.00;;;;;;6251840;28;20056;-77
2022/03/20 03:42:39;;;;;;;18.15;10.73;;;6.40;66.40;;;;;;6253428;28;20049;-80
2022/03/20 03:45:41;;;;;;;20.95;10.77;;;6.40;66.00;;;;;;6253568;28;20052;-78
2022/03/20 03:48:42;;;;;;;20.63;9.48;;;6.50;65.90;;;;;;6253483;28;20046;-79
2022/03/20 03:51:44;;;;;;;23.05;10.93;;;6.50;65.50;;;;;;6252477;28;20109;-79
2022/03/20 03:54:48;;;;;;;20.13;11.27;;;6.60;65.20;;;;;;6251257;28;20490;-78
2022/03/20 03:57:51;;;;;;;24.50;11.35;;;6.50;65.10;;;;;;6252415;28;20056;-80
2022/03/20 04:00:53;;;;;;;19.92;11.45;;;6.50;64.90;;;;;;6223143;28;20052;-78
2022/03/20 04:03:55;;;;;;;20.92;11.27;;;6.50;65.30;;;;;;6251713;28;20185;-79
2022/03/20 04:06:57;;;;;;;19.42;11.27;;;6.60;65.00;;;;;;6253380;28;20419;-78
2022/03/20 04:10:01;;;;;;;24.35;11.50;;;6.70;65.10;;;;;;6252343;28;20049;-76
2022/03/20 04:13:04;;;;;;;22.00;11.18;;;6.80;64.80;;;;;;6252046;28;20045;-78
2022/03/20 04:16:07;;;;;;;19.13;10.93;;;6.90;64.60;;;;;;6251486;28;20046;-78
2022/03/20 04:19:10;;;;;;;21.48;10.20;;;7.00;64.10;;;;;;6252611;28;20420;-79
2022/03/20 04:22:12;;;;;;;20.80;10.60;;;7.00;63.60;;;;;;6251253;28;20448;-77
2022/03/20 04:25:15;;;;;;;22.90;11.40;;;7.00;63.60;;;;;;6250196;28;20052;-79
2022/03/20 04:28:19;;;;;;;18.00;10.32;;;6.90;63.60;;;;;;6250930;28;20055;-78
2022/03/20 04:31:21;;;;;;;20.15;10.65;;;6.90;64.20;;;;;;6252745;28;20081;-77
2022/03/20 04:34:23;;;;;;;21.63;10.77;;;6.80;64.30;;;;;;6253499;28;20511;-79
2022/03/20 04:37:25;;;;;;;20.50;10.65;;;6.80;64.50;;;;;;6252560;28;20117;-77
2022/03/20 04:40:28;;;;;;;22.80;11.02;;;6.80;65.00;;;;;;6252673;28;20410;-78
2022/03/20 04:43:30;;;;;;;21.00;11.60;;;6.80;64.80;;;;;;6252918;28;20076;-79
2022/03/20 04:46:31;;;;;;;17.73;10.10;;;6.60;64.90;;;;;;6252157;28;20056;-78
2022/03/20 04:59:33;;;;;;;21.48;11.18;;;6.60;66.30;;;;;;6262023;28;20057;-77
2022/03/20 05:02:35;;;;;;;20.33;11.50;;;6.60;66.00;;;;;;6262423;28;20061;-77
2022/03/20 05:05:38;;;;;;;19.08;11.10;;;6.60;66.10;;;;;;6267978;28;20052;-79
2022/03/20 05:08:40;;;;;;;25.70;11.70;;;6.70;66.20;;;;;;6267029;28;20076;-77
2022/03/20 05:15:03;;;;;;;18.55;9.82;;;6.50;66.90;;;;;;6255322;28;20136;-80
2022/03/20 05:18:05;;;;;;;20.13;10.95;;;6.40;67.30;;;;;;6252671;28;20507;-78
2022/03/20 05:21:07;;;;;;;26.33;11.77;;;6.40;68.00;;;;;;6253161;28;20136;-78
2022/03/20 05:24:09;;;;;;;22.60;11.27;;;6.30;68.40;;;;;;6254479;28;20046;-78
2022/03/20 05:27:12;;;;;;;22.40;11.27;;;6.10;68.80;;;;;;6253855;28;20072;-81
2022/03/20 05:30:14;;;;;;;24.42;12.32;;;6.00;69.10;;;;;;6253884;28;20053;-78
2022/03/20 05:33:16;;;;;;;20.00;10.82;;;5.90;69.80;;;;;;6253757;28;20107;-77
2022/03/20 05:36:18;;;;;;;22.02;10.65;;;5.80;69.90;;;;;;6252633;28;20577;-78
2022/03/20 05:39:20;;;;;;;24.35;11.73;;;5.80;70.20;;;;;;6254673;28;20060;-78
2022/03/20 05:42:23;;;;;;;23.80;12.05;;;5.70;70.90;;;;;;6253591;28;20125;-78
2022/03/20 05:45:25;;;;;;;24.38;11.25;;;5.60;71.10;;;;;;6252947;28;20056;-78
2022/03/20 05:48:27;;;;;;;26.00;12.45;;;5.60;71.20;;;;;;6252516;28;20041;-78
2022/03/20 05:51:30;;;;;;;22.80;12.02;;;5.50;71.60;;;;;;6253744;28;20045;-78
2022/03/20 05:54:32;;;;;;;18.88;11.10;;;5.50;71.80;;;;;;6252706;28;20049;-79
2022/03/20 06:00:58;;;;;;;25.13;12.77;;;5.40;72.30;;;;;;6249977;28;20045;-78
2022/03/20 06:04:03;;;;;;;26.35;11.57;;;5.50;72.30;;;;;;6251784;28;20049;-78
2022/03/20 06:07:05;;;;;;;27.65;12.60;;;5.60;72.50;;;;;;6251579;28;20050;-78
2022/03/20 06:10:10;;;;;;;21.75;11.23;;;5.70;72.30;;;;;;6250818;28;20427;-77
2022/03/20 06:13:13;;;;;;;19.42;12.40;;;5.80;71.90;;;;;;6250353;28;20057;-78
2022/03/20 06:16:16;;;;;;;22.10;11.23;;;5.90;71.70;;;;;;6249184;28;20426;-78
2022/03/20 06:19:18;;;;;;;22.00;11.52;;;6.00;71.90;;;;;;6253146;28;20057;-77
2022/03/20 06:22:20;;;;;;;18.17;10.75;;;6.10;71.80;;;;;;6257411;28;20042;-78
2022/03/20 06:25:21;;;;;;;23.13;12.02;;;6.10;71.40;;;;;;6253396;28;20076;-78
2022/03/20 06:28:24;;;;;;;22.83;11.55;;;6.20;71.10;;;;;;6250339;28;20408;-78
2022/03/20 06:31:26;;;;;;;25.20;12.25;;;6.30;70.90;;;;;;6251132;28;20045;-78
2022/03/20 06:34:28;;;;;;;22.88;11.07;;;6.40;70.60;;;;;;6249642;28;20507;-78
2022/03/20 06:37:35;;;;;;;18.50;11.05;;;6.60;70.50;;;;;;6251465;28;20414;-80
2022/03/20 06:40:37;;;;;;;28.02;13.25;;;6.80;70.50;;;;;;6250441;28;20522;-78
2022/03/20 06:43:40;;;;;;;20.15;10.77;;;6.90;70.50;;;;;;6250983;28;20048;-79
2022/03/20 06:46:42;;;;;;;23.40;12.82;;;7.00;70.70;;;;;;6252500;28;20053;-78
2022/03/20 06:49:45;;;;;;;21.35;11.00;;;7.20;70.70;;;;;;6251724;28;20049;-80
2022/03/20 06:52:47;;;;;;;22.27;12.60;;;7.40;71.00;;;;;;6251995;28;20045;-79
2022/03/20 06:55:49;;;;;;;18.58;10.60;;;7.50;70.90;;;;;;6250866;28;20060;-78
2022/03/20 06:58:52;;;;;;;22.65;12.27;;;7.40;71.10;;;;;;6251812;28;20099;-79
2022/03/20 07:01:54;;;;;;;24.70;11.07;;;7.60;71.10;;;;;;6249834;28;20507;-79
2022/03/20 07:04:56;;;;;;;35.55;10.85;;;7.70;71.10;;;;;;6249751;28;20046;-79
2022/03/20 07:07:58;;;;;;;22.88;12.30;;;8.00;70.80;;;;;;6250783;28;20086;-77
2022/03/20 07:11:00;;;;;;;25.17;13.13;;;8.30;70.40;;;;;;6251032;28;20084;-78
2022/03/20 07:14:03;;;;;;;20.73;10.95;;;8.60;68.70;;;;;;6250360;28;20045;-78
2022/03/20 07:17:07;;;;;;;25.15;11.73;;;8.80;68.40;;;;;;6250377;28;20057;-80
2022/03/20 07:20:10;;;;;;;23.88;12.80;;;9.00;67.80;;;;;;6250130;28;20049;-78
2022/03/20 07:23:13;;;;;;;19.80;11.90;;;9.20;66.50;;;;;;6251375;28;20045;-78
2022/03/20 07:29:35;;;;;;;20.42;11.75;;;9.30;64.60;;;;;;6249949;28;20474;-78
2022/03/20 07:32:37;;;;;;;22.30;12.02;;;9.50;64.60;;;;;;6249587;28;20400;-80
2022/03/20 07:35:40;;;;;;;21.17;12.40;;;10.40;64.20;;;;;;6248418;28;20100;-80
2022/03/20 07:38:42;;;;;;;24.48;11.18;;;11.20;61.70;;;;;;6250052;28;20049;-79
2022/03/20 07:41:44;;;;;;;20.23;10.45;;;11.90;59.10;;;;;;6249266;28;20107;-78
2022/03/20 07:44:47;;;;;;;18.40;11.40;;;12.60;57.30;;;;;;6248999;28;20053;-78
2022/03/20 07:47:49;;;;;;;23.75;12.82;;;12.70;56.20;;;;;;6249584;28;20506;-77
2022/03/20 07:50:52;;;;;;;21.92;12.25;;;12.50;56.20;;;;;;6250940;28;20140;-78
2022/03/20 07:53:53;;;;;;;19.67;12.02;;;12.10;56.80;;;;;;6250199;28;20547;-79
2022/03/20 07:56:55;;;;;;;20.60;11.43;;;11.70;58.60;;;;;;6250423;28;20061;-78
2022/03/20 07:59:58;;;;;;;20.40;11.68;;;11.40;60.30;;;;;;6250088;28;20533;-80
2022/03/20 08:03:00;;;;;;;28.70;14.05;;;11.10;61.50;;;;;;6251117;28;20046;-81
2022/03/20 08:06:02;;;;;;;22.45;11.88;;;10.90;63.10;;;;;;6249345;28;20056;-81
2022/03/20 08:09:04;;;;;;;20.15;11.40;;;10.70;64.10;;;;;;6249468;28;20133;-79
2022/03/20 08:12:07;;;;;;;19.77;11.20;;;10.50;66.30;;;;;;6250024;28;20191;-80
2022/03/20 08:15:15;;;;;;;24.70;12.93;;;10.60;66.70;;;;;;6250682;28;20128;-80
2022/03/20 08:18:17;;;;;;;20.90;12.10;;;10.90;67.20;;;;;;6251435;28;20045;-79
2022/03/20 08:21:19;;;;;;;25.30;14.75;;;11.30;66.10;;;;;;6223165;28;20045;-81
2022/03/20 08:24:20;;;;;;;31.40;15.02;;;11.60;65.50;;;;;;6236343;28;20419;-82
2022/03/20 08:27:23;;;;;;;26.73;13.90;;;12.00;64.20;;;;;;6256158;28;20049;-80
2022/03/20 08:30:27;;;;;;;24.48;13.70;;;12.20;63.20;;;;;;6254326;28;20061;-81
2022/03/20 08:33:30;;;;;;;24.85;13.52;;;12.30;62.80;;;;;;6255411;28;20045;-81
2022/03/20 08:36:34;;;;;;;25.10;13.73;;;12.30;61.50;;;;;;6253813;28;20049;-81
2022/03/20 08:39:35;;;;;;;23.63;12.90;;;12.40;61.20;;;;;;6253402;28;20073;-82
2022/03/20 08:42:37;;;;;;;20.23;11.85;;;12.60;60.70;;;;;;6252541;28;20049;-82
2022/03/20 08:45:41;;;;;;;24.05;12.70;;;12.90;60.00;;;;;;6252064;28;20132;-81
2022/03/20 08:48:43;;;;;;;32.13;16.73;;;13.10;59.80;;;;;;6252228;28;20045;-81
2022/03/20 08:51:44;;;;;;;25.48;14.10;;;13.20;58.20;;;;;;6253702;28;20060;-80
2022/03/20 08:54:46;;;;;;;27.92;13.52;;;13.20;56.80;;;;;;6252078;28;20061;-79
2022/03/20 08:57:48;;;;;;;59.40;35.58;;;13.30;55.90;;;;;;6252386;28;20517;-79
2022/03/20 09:00:51;;;;;;;22.40;12.88;;;13.60;55.30;;;;;;6253205;28;20096;-79
2022/03/20 09:03:54;;;;;;;30.05;16.38;;;14.50;55.00;;;;;;6252462;28;20041;-80
2022/03/20 09:06:55;;;;;;;26.50;15.10;;;15.70;54.80;;;;;;6251548;28;20049;-78
2022/03/20 09:09:57;;;;;;;50.97;29.30;;;16.60;53.00;;;;;;6249340;28;20053;-79
2022/03/20 09:13:00;;;;;;;30.75;16.58;;;16.70;49.00;;;;;;6252459;28;20526;-80
2022/03/20 09:19:23;;;;;;;23.73;13.05;;;16.30;50.90;;;;;;6251763;28;20057;-80
2022/03/20 09:22:26;;;;;;;21.73;11.73;;;16.20;50.80;;;;;;6251293;28;20049;-78
2022/03/20 09:25:28;;;;;;;20.02;12.48;;;16.10;49.30;;;;;;6250572;28;20415;-79
2022/03/20 09:28:30;;;;;;;20.95;13.00;;;16.00;49.50;;;;;;6251995;28;20642;-80
2022/03/20 09:31:34;;;;;;;21.95;12.02;;;16.50;49.90;;;;;;6251543;28;20053;-80
2022/03/20 09:34:36;;;;;;;21.42;13.10;;;16.80;48.40;;;;;;6250490;28;20041;-80
2022/03/20 09:37:40;;;;;;;20.67;11.95;;;17.10;47.80;;;;;;6251888;28;20052;-79
2022/03/20 09:40:42;;;;;;;21.98;11.15;;;17.30;48.60;;;;;;6251905;28;20049;-80
2022/03/20 09:43:46;;;;;;;26.75;11.65;;;17.50;46.50;;;;;;6251026;28;20046;-80
2022/03/20 09:46:49;;;;;;;19.05;10.93;;;17.50;47.10;;;;;;6251785;28;20060;-82
2022/03/20 09:49:53;;;;;;;21.23;11.48;;;17.30;47.60;;;;;;6251232;28;20046;-79
2022/03/20 09:52:55;;;;;;;19.40;11.85;;;17.10;47.50;;;;;;6250520;28;20041;-80
2022/03/20 09:55:57;;;;;;;22.08;11.80;;;16.80;46.90;;;;;;6242296;28;20075;-82
2022/03/20 09:58:59;;;;;;;21.23;12.50;;;16.60;47.40;;;;;;6251915;28;20072;-80
2022/03/20 10:02:06;;;;;;;18.88;13.00;;;16.40;47.80;;;;;;6254449;28;20459;-80
2022/03/20 10:05:10;;;;;;;27.10;14.57;;;16.30;48.10;;;;;;6255680;28;20410;-80
2022/03/20 10:08:17;;;;;;;24.13;13.80;;;16.20;48.00;;;;;;6246290;28;20045;-80
2022/03/20 10:11:19;;;;;;;21.95;13.70;;;16.00;48.50;;;;;;6252192;28;20049;-81
2022/03/20 10:14:23;;;;;;;23.77;13.10;;;16.20;48.90;;;;;;6250949;28;20052;-80
2022/03/20 10:17:26;;;;;;;21.23;13.10;;;16.30;48.10;;;;;;6252234;28;20049;-79
2022/03/20 10:20:34;;;;;;;23.15;13.23;;;16.50;48.20;;;;;;6251490;28;20056;-81
2022/03/20 10:23:39;;;;;;;24.13;13.25;;;16.80;47.70;;;;;;6251929;28;20075;-81
2022/03/20 10:26:41;;;;;;;22.23;14.30;;;17.10;46.70;;;;;;6251201;28;20056;-80
2022/03/20 10:29:51;;;;;;;27.30;14.20;;;17.00;46.10;;;;;;6250685;28;20049;-81
2022/03/20 10:32:54;;;;;;;25.38;13.35;;;17.00;46.40;;;;;;6250936;28;20527;-79
2022/03/20 10:36:14;;;;;;;19.13;12.80;;;17.20;46.80;;;;;;6250535;28;22769;-80
2022/03/20 10:39:19;;;;;;;23.70;13.95;;;17.40;46.10;;;;;;6251573;28;20049;-80
2022/03/20 10:42:21;;;;;;;25.73;12.93;;;17.50;45.20;;;;;;6250575;28;20049;-80
2022/03/20 10:45:22;;;;;;;24.60;14.38;;;17.50;45.40;;;;;;6241091;28;20038;-80
2022/03/20 10:48:37;;;;;;;24.88;12.68;;;17.40;45.30;;;;;;6236790;28;20099;-80
2022/03/20 10:51:41;;;;;;;21.00;11.55;;;17.50;45.20;;;;;;6239659;28;20050;-79
2022/03/20 10:54:46;;;;;;;22.58;13.27;;;17.30;44.80;;;;;;6239007;28;20048;-80
2022/03/20 10:57:48;;;;;;;22.92;13.40;;;17.20;46.30;;;;;;6240618;28;20041;-79
2022/03/20 11:00:50;;;;;;;23.10;13.07;;;17.10;45.30;;;;;;6241733;28;20128;-80
2022/03/20 11:03:53;;;;;;;20.63;13.50;;;16.90;46.20;;;;;;6235007;28;20048;-79
2022/03/20 11:06:57;;;;;;;22.63;12.68;;;17.10;46.20;;;;;;6245618;28;20392;-79
2022/03/20 11:10:00;;;;;;;19.08;11.68;;;17.40;46.20;;;;;;6239221;28;20179;-79
2022/03/20 11:13:03;;;;;;;20.20;12.55;;;17.90;45.40;;;;;;6236958;28;20046;-80
2022/03/20 11:16:06;;;;;;;24.33;11.68;;;17.90;44.20;;;;;;6236856;28;20050;-80
2022/03/20 11:19:11;;;;;;;24.52;13.07;;;17.70;44.80;;;;;;6233336;28;20045;-80
2022/03/20 11:22:15;;;;;;;23.50;14.00;;;17.60;45.10;;;;;;6226943;28;20049;-79
2022/03/20 11:25:20;;;;;;;23.55;12.93;;;17.70;45.40;;;;;;6240852;28;20570;-80
2022/03/20 11:28:24;;;;;;;20.80;12.10;;;18.00;45.00;;;;;;6249558;28;20045;-81
2022/03/20 11:31:26;;;;;;;20.25;11.93;;;18.30;44.40;;;;;;6232782;28;20543;-80
2022/03/20 11:34:32;;;;;;;22.10;12.38;;;18.40;43.80;;;;;;6225683;28;20053;-80
2022/03/20 11:37:45;;;;;;;22.17;12.13;;;18.60;43.80;;;;;;6225906;28;20092;-79
2022/03/20 11:41:10;;;;;;;23.13;13.40;;;18.60;44.10;;;;;;6226776;28;20046;-80
2022/03/20 11:44:20;;;;;;;22.15;12.55;;;18.80;43.40;;;;;;6226261;28;20045;-80
2022/03/20 11:47:29;;;;;;;19.90;12.13;;;18.90;43.50;;;;;;6234356;22;20054;-80
2022/03/20 11:54:57;;;;;;;29.85;17.52;;;18.70;44.10;;;;;;6127965;28;20049;-79
2022/03/20 12:02:10;;;;;;;24.88;14.05;;;18.20;45.60;;;;;;6051124;29;20408;-80
2022/03/20 12:21:09;;;;;;;21.17;12.63;;;20.00;43.30;;;;;;6013550;29;20048;-80
2022/03/20 12:24:45;;;;;;;18.48;11.13;;;19.90;43.60;;;;;;6152168;28;20058;-80
2022/03/20 12:27:48;;;;;;;19.52;11.30;;;20.10;43.10;;;;;;6201444;28;20060;-81
2022/03/20 12:30:51;;;;;;;20.65;10.77;;;20.20;43.50;;;;;;6227479;28;20054;-82
2022/03/20 12:34:20;;;;;;;22.27;10.02;;;20.20;43.50;;;;;;6219525;28;20523;-80
2022/03/20 12:37:40;;;;;;;;;;;20.60;42.90;;;;;;6201714;28;20046;-84
2022/03/20 12:44:43;;;;;;;19.25;8.77;;;20.70;43.10;;;;;;6084471;29;20051;-81
2022/03/20 12:48:05;;;;;;;17.95;9.35;;;21.20;43.10;;;;;;6137727;28;20062;-81
2022/03/20 12:51:33;;;;;;;16.38;9.27;;;22.00;40.60;;;;;;6201087;28;20109;-82
2022/03/20 12:54:35;;;;;;;16.08;8.23;;;21.90;40.80;;;;;;6202988;28;20111;-81
2022/03/20 12:57:42;;;;;;;15.57;6.78;;;22.00;39.30;;;;;;6218595;28;20124;-81
2022/03/20 13:00:44;;;;;;;15.10;8.60;;;22.00;39.70;;;;;;6223310;28;20046;-81
2022/03/20 13:03:48;;;;;;;22.42;8.15;;;22.30;39.50;;;;;;6222851;28;20053;-80
2022/03/20 13:06:51;;;;;;;14.15;6.90;;;22.80;39.60;;;;;;6224267;28;20127;-82
2022/03/20 13:09:59;;;;;;;19.33;8.27;;;23.50;38.60;;;;;;6223280;28;20050;-81
2022/03/20 13:13:02;;;;;;;11.65;6.97;;;24.00;37.90;;;;;;6228233;28;20133;-82
2022/03/20 13:16:06;;;;;;;11.25;6.80;;;24.60;36.80;;;;;;6227508;28;20065;-81
2022/03/20 13:19:09;;;;;;;14.50;7.28;;;25.00;35.40;;;;;;6228259;28;20396;-83
2022/03/20 13:22:12;;;;;;;14.93;6.53;;;25.20;35.40;;;;;;6228318;28;20041;-83
2022/03/20 13:25:18;;;;;;;14.07;7.10;;;25.40;35.00;;;;;;6224656;28;20050;-82
2022/03/20 13:28:23;;;;;;;15.25;6.95;;;25.70;34.50;;;;;;6204261;28;20050;-82
2022/03/20 13:31:24;;;;;;;14.50;6.60;;;25.90;33.40;;;;;;6204775;28;20054;-82
2022/03/20 13:34:28;;;;;;;11.35;6.78;;;26.00;33.30;;;;;;6203126;28;20046;-82
2022/03/20 13:37:30;;;;;;;11.18;6.32;;;26.00;33.20;;;;;;6203893;28;20054;-83
2022/03/20 13:40:34;;;;;;;12.73;6.70;;;26.20;33.30;;;;;;6204435;28;20042;-82
2022/03/20 13:43:36;;;;;;;12.40;6.25;;;26.30;32.90;;;;;;6216560;28;20074;-84
2022/03/20 13:46:39;;;;;;;11.75;6.90;;;26.40;32.70;;;;;;6210054;28;20061;-83
2022/03/20 13:49:44;;;;;;;9.45;5.60;;;26.70;32.50;;;;;;6204129;28;20050;-83
2022/03/20 13:52:50;;;;;;;14.82;6.90;;;26.80;32.10;;;;;;6203573;28;20054;-82
2022/03/20 13:55:52;;;;;;;10.50;5.68;;;26.90;31.80;;;;;;6213263;28;20145;-81
2022/03/20 13:59:00;;;;;;;10.73;6.50;;;26.90;31.60;;;;;;6204483;28;20058;-81
2022/03/20 14:02:03;;;;;;;10.13;5.88;;;27.00;31.40;;;;;;6203224;28;20074;-81
2022/03/20 14:05:12;;;;;;;12.85;5.53;;;27.00;31.20;;;;;;6202535;28;20110;-83
2022/03/20 14:08:17;;;;;;;14.05;5.95;;;26.90;31.20;;;;;;6203664;28;20154;-80
2022/03/20 14:11:31;;;;;;;12.40;4.85;;;27.00;31.00;;;;;;6210553;28;20527;-82
2022/03/20 14:14:44;;;;;;;9.63;5.57;;;26.90;30.60;;;;;;6200998;28;20173;-80
2022/03/20 14:17:50;;;;;;;12.85;6.97;;;27.00;30.80;;;;;;6202893;28;20138;-81
2022/03/20 14:21:07;;;;;;;15.38;6.78;;;26.90;30.50;;;;;;6202359;28;20101;-81
2022/03/20 14:24:12;;;;;;;14.48;5.93;;;26.90;30.30;;;;;;6209388;28;20058;-81
2022/03/20 14:27:13;;;;;;;9.82;4.80;;;27.00;30.40;;;;;;6202287;28;20500;-81
2022/03/20 14:40:42;;;;;;;11.23;5.75;;;27.00;29.30;;;;;;6228022;28;20050;-82
2022/03/20 14:43:44;;;;;;;11.32;5.20;;;26.40;29.60;;;;;;6230945;28;20045;-80
2022/03/20 14:46:49;;;;;;;12.50;5.50;;;26.10;30.00;;;;;;6233245;28;20435;-81
2022/03/20 14:49:53;;;;;;;15.73;5.68;;;26.40;30.40;;;;;;6228553;28;20105;-80
2022/03/20 14:52:56;;;;;;;10.55;5.35;;;26.70;30.20;;;;;;6228994;28;20046;-81
2022/03/20 14:55:58;;;;;;;10.60;5.07;;;26.90;29.30;;;;;;6221679;28;20043;-82
2022/03/20 14:59:00;;;;;;;11.75;4.72;;;26.20;29.30;;;;;;6204439;28;20060;-80
2022/03/20 15:02:02;;;;;;;8.63;5.15;;;25.70;29.90;;;;;;6204771;28;20050;-81
2022/03/20 15:05:05;;;;;;;15.10;5.20;;;25.40;29.80;;;;;;6202412;28;20109;-83
2022/03/20 15:11:30;;;;;;;14.27;5.30;;;24.60;30.10;;;;;;6213924;28;20053;-82
2022/03/20 15:14:32;;;;;;;13.80;5.50;;;23.90;30.60;;;;;;6226524;28;20042;-82
2022/03/20 15:17:35;;;;;;;12.75;4.95;;;23.70;31.30;;;;;;6227369;28;20042;-81
2022/03/20 15:20:38;;;;;;;12.73;5.45;;;23.50;31.80;;;;;;6228389;28;20181;-81
2022/03/20 15:23:41;;;;;;;11.82;4.72;;;23.40;31.80;;;;;;6226449;28;20056;-81
2022/03/20 15:26:53;;;;;;;11.65;4.57;;;23.20;32.20;;;;;;6227904;28;20049;-81
2022/03/20 15:29:54;;;;;;;10.70;4.30;;;22.80;31.50;;;;;;6227543;28;20046;-82
2022/03/20 15:32:57;;;;;;;9.05;3.90;;;22.30;32.30;;;;;;6227720;28;20058;-83
2022/03/20 15:35:59;;;;;;;11.85;4.43;;;22.00;33.80;;;;;;6227004;28;20140;-81
2022/03/20 15:39:09;;;;;;;13.07;4.30;;;21.70;34.60;;;;;;6227478;28;20054;-83
2022/03/20 15:42:11;;;;;;;7.00;4.18;;;21.40;35.20;;;;;;6226487;28;20053;-81
2022/03/20 15:45:13;;;;;;;9.55;4.20;;;21.00;36.30;;;;;;6225824;28;20045;-81
2022/03/20 15:48:17;;;;;;;10.57;5.53;;;20.80;36.90;;;;;;6226653;28;20053;-81
2022/03/20 15:51:19;;;;;;;13.27;4.85;;;20.40;37.20;;;;;;6228381;28;20049;-86
2022/03/20 15:54:22;;;;;;;8.30;4.43;;;20.20;38.10;;;;;;6224217;28;20038;-80
2022/03/20 15:57:24;;;;;;;11.13;5.20;;;20.00;38.60;;;;;;6226207;28;20050;-81
2022/03/20 16:00:26;;;;;;;8.07;4.35;;;19.90;39.00;;;;;;6228443;28;20049;-81
2022/03/20 16:03:28;;;;;;;13.50;4.55;;;19.70;39.30;;;;;;6231188;28;20130;-81
2022/03/20 16:06:30;;;;;;;10.60;4.68;;;19.60;39.70;;;;;;6226084;28;20072;-81
2022/03/20 16:09:33;;;;;;;9.93;5.55;;;19.50;39.90;;;;;;6225539;28;20655;-82
2022/03/20 16:12:35;;;;;;;13.48;6.28;;;19.50;40.40;;;;;;6226715;28;20129;-81
2022/03/20 16:15:37;;;;;;;17.45;6.95;;;19.50;40.70;;;;;;6225117;28;20111;-80
2022/03/20 16:18:39;;;;;;;11.63;4.00;;;19.40;40.90;;;;;;6226043;28;20049;-80
2022/03/20 16:21:43;;;;;;;9.82;4.63;;;19.30;41.10;;;;;;6225141;28;20527;-81
2022/03/20 16:31:27;;;;;;;10.27;5.47;;;19.00;41.10;;;;;;6201543;28;20439;-81
2022/03/20 16:34:29;;;;;;;14.38;4.90;;;19.00;40.90;;;;;;6201041;28;20039;-80
2022/03/20 16:37:31;;;;;;;9.73;4.57;;;18.90;41.10;;;;;;6201318;28;20050;-80
2022/03/20 16:40:34;;;;;;;17.73;5.43;;;19.00;41.30;;;;;;6198830;28;20050;-80
2022/03/20 16:43:38;;;;;;;20.35;6.53;;;19.00;41.20;;;;;;6231983;28;20097;-80
2022/03/20 16:46:40;;;;;;;12.40;5.68;;;19.10;40.30;;;;;;6231573;28;20050;-81
2022/03/20 16:49:42;;;;;;;10.73;5.40;;;19.10;40.10;;;;;;6235712;28;20060;-79
2022/03/20 16:52:46;;;;;;;11.45;4.90;;;19.10;40.10;;;;;;6232867;28;20049;-80
2022/03/20 16:55:49;;;;;;;17.58;5.10;;;19.00;39.60;;;;;;6226396;28;20046;-81
2022/03/20 16:58:51;;;;;;;10.40;5.65;;;18.90;39.40;;;;;;6234454;28;20081;-81